createdAt,value
2023-05-22T00:01:16.743Z,12.51
2023-05-22T00:03:43.317Z,12.59
2023-05-22T00:06:09.828Z,12.57
2023-05-22T00:08:36.254Z,12.38
2023-05-22T00:11:02.878Z,12.27
2023-05-22T00:13:29.344Z,12.16
2023-05-22T00:15:55.846Z,12.18
2023-05-22T00:18:22.662Z,11.94
2023-05-22T00:20:49.182Z,12.02
2023-05-22T00:23:15.853Z,12.06
2023-05-22T00:25:42.400Z,12.08
2023-05-22T00:28:09.056Z,11.95
2023-05-22T00:30:36.631Z,12.05
2023-05-22T00:33:03.492Z,12.05
2023-05-22T00:35:30.004Z,12.03
2023-05-22T00:37:56.542Z,11.85
2023-05-22T00:40:23.038Z,11.91
2023-05-22T00:42:49.567Z,11.68
2023-05-22T00:45:16.462Z,11.44
2023-05-22T00:47:42.943Z,11.46
2023-05-22T00:50:10.172Z,11.60
2023-05-22T00:52:37.895Z,11.53
2023-05-22T00:55:04.578Z,11.53
2023-05-22T00:57:31.036Z,11.35
2023-05-22T00:59:57.482Z,11.54
2023-05-22T01:02:23.952Z,11.44
2023-05-22T01:04:50.591Z,11.30
2023-05-22T01:07:17.356Z,11.31
2023-05-22T01:09:43.943Z,11.33
2023-05-22T01:12:10.312Z,11.41
2023-05-22T01:14:40.564Z,11.40
2023-05-22T01:17:08.507Z,11.08
2023-05-22T01:19:49.998Z,11.38
2023-05-22T01:22:26.163Z,11.35
2023-05-22T01:24:58.596Z,11.18
2023-05-22T01:27:30.825Z,11.11
2023-05-22T01:29:57.202Z,11.13
2023-05-22T01:32:24.844Z,11.00
2023-05-22T01:34:55.317Z,11.08
2023-05-22T01:37:21.863Z,11.07
2023-05-22T01:39:48.333Z,10.92
2023-05-22T01:42:15.080Z,10.97
2023-05-22T01:44:41.525Z,11.00
2023-05-22T01:47:07.957Z,11.07
2023-05-22T01:49:34.737Z,11.09
2023-05-22T01:52:03.901Z,11.09
2023-05-22T01:54:42.652Z,11.03
2023-05-22T01:57:24.576Z,10.94
2023-05-22T01:59:55.170Z,10.92
2023-05-22T02:02:22.050Z,10.80
2023-05-22T02:04:52.493Z,10.79
2023-05-22T02:07:19.715Z,10.85
2023-05-22T02:09:46.193Z,10.84
2023-05-22T02:12:12.689Z,10.70
2023-05-22T02:14:39.224Z,10.86
2023-05-22T02:17:05.851Z,10.84
2023-05-22T02:19:34.127Z,10.87
2023-05-22T02:22:00.623Z,10.91
2023-05-22T02:24:27.153Z,10.84
2023-05-22T02:26:53.587Z,10.92
2023-05-22T02:29:20.006Z,11.04
2023-05-22T02:31:46.561Z,10.92
2023-05-22T02:34:13.152Z,10.89
2023-05-22T02:36:40.480Z,10.86
2023-05-22T02:39:06.914Z,10.83
2023-05-22T02:41:33.482Z,10.87
2023-05-22T02:43:59.993Z,10.83
2023-05-22T02:46:26.594Z,10.78
2023-05-22T02:48:53.117Z,10.71
2023-05-22T02:51:19.622Z,10.78
2023-05-22T02:53:46.045Z,10.63
2023-05-22T02:56:12.592Z,10.61
2023-05-22T02:58:39.283Z,10.44
2023-05-22T03:01:05.780Z,10.45
2023-05-22T03:03:32.904Z,10.51
2023-05-22T03:06:00.065Z,10.39
2023-05-22T03:08:26.670Z,10.31
2023-05-22T03:10:53.230Z,10.22
2023-05-22T03:13:19.741Z,10.16
2023-05-22T03:15:46.312Z,10.11
2023-05-22T03:18:12.869Z,10.22
2023-05-22T03:20:39.723Z,10.03
2023-05-22T03:23:06.496Z,9.89
2023-05-22T03:25:33.022Z,9.97
2023-05-22T03:27:59.490Z,9.96
2023-05-22T03:30:26.027Z,9.95
2023-05-22T03:32:52.502Z,9.90
2023-05-22T03:35:18.986Z,9.91
2023-05-22T03:37:45.869Z,9.92
2023-05-22T03:40:12.613Z,9.90
2023-05-22T03:42:39.115Z,9.89
2023-05-22T03:45:06.134Z,9.86
2023-05-22T03:47:32.646Z,9.89
2023-05-22T03:49:59.185Z,9.89
2023-05-22T03:52:25.720Z,9.54
2023-05-22T03:54:52.250Z,9.66
2023-05-22T03:57:18.706Z,9.75
2023-05-22T03:59:45.357Z,9.82
2023-05-22T04:02:12.156Z,9.89
2023-05-22T04:04:39.412Z,9.91
2023-05-22T04:07:06.014Z,9.81
2023-05-22T04:09:32.528Z,9.74
2023-05-22T04:11:59.098Z,9.73
2023-05-22T04:14:25.597Z,9.71
2023-05-22T04:16:52.072Z,9.56
2023-05-22T04:19:18.614Z,9.66
2023-05-22T04:21:45.148Z,9.46
2023-05-22T04:24:11.759Z,9.35
2023-05-22T04:26:39.388Z,9.42
2023-05-22T04:29:06.946Z,9.48
2023-05-22T04:31:33.597Z,9.51
2023-05-22T04:34:01.077Z,9.59
2023-05-22T04:36:28.275Z,9.76
2023-05-22T04:38:54.895Z,9.76
2023-05-22T04:41:22.620Z,9.89
2023-05-22T04:43:49.364Z,9.96
2023-05-22T04:46:16.003Z,10.10
2023-05-22T04:48:42.539Z,10.12
2023-05-22T04:51:09.082Z,10.15
2023-05-22T04:53:35.542Z,10.26
2023-05-22T04:56:02.191Z,10.31
2023-05-22T04:58:29.265Z,10.35
2023-05-22T05:00:55.819Z,10.40
2023-05-22T05:03:22.429Z,10.44
2023-05-22T05:05:48.997Z,10.50
2023-05-22T05:08:15.493Z,10.58
2023-05-22T05:10:42.012Z,10.47
2023-05-22T05:13:09.265Z,10.66
2023-05-22T05:15:35.760Z,10.69
2023-05-22T05:18:02.270Z,10.68
2023-05-22T05:20:28.721Z,10.67
2023-05-22T05:22:55.228Z,10.75
2023-05-22T05:25:21.783Z,10.81
2023-05-22T05:27:48.292Z,11.02
2023-05-22T05:30:14.901Z,11.10
2023-05-22T05:32:41.390Z,11.09
2023-05-22T05:35:08.088Z,11.14
2023-05-22T05:37:34.550Z,11.23
2023-05-22T05:40:01.123Z,11.27
2023-05-22T05:42:27.558Z,11.46
2023-05-22T05:44:54.061Z,11.57
2023-05-22T05:47:20.815Z,11.55
2023-05-22T05:49:47.456Z,11.69
2023-05-22T05:52:14.012Z,11.92
2023-05-22T05:54:40.757Z,11.95
2023-05-22T05:57:07.301Z,12.06
2023-05-22T05:59:33.709Z,12.19
2023-05-22T06:02:00.384Z,12.33
2023-05-22T06:04:26.896Z,12.65
2023-05-22T06:06:53.387Z,12.83
2023-05-22T06:09:20.013Z,12.91
2023-05-22T06:11:46.530Z,13.21
2023-05-22T06:14:13.013Z,13.18
2023-05-22T06:16:39.538Z,13.23
2023-05-22T06:19:06.060Z,13.31
2023-05-22T06:21:32.533Z,13.49
2023-05-22T06:23:59.083Z,13.55
2023-05-22T06:26:25.650Z,13.76
2023-05-22T06:28:52.253Z,13.94
2023-05-22T06:31:18.748Z,14.13
2023-05-22T06:33:45.426Z,14.35
2023-05-22T06:36:12.073Z,14.31
2023-05-22T06:38:38.730Z,14.60
2023-05-22T06:41:05.433Z,14.69
2023-05-22T06:43:31.886Z,14.52
2023-05-22T06:45:58.452Z,14.81
2023-05-22T06:48:25.010Z,15.00
2023-05-22T06:50:51.422Z,15.22
2023-05-22T06:53:17.989Z,15.35
2023-05-22T06:55:44.404Z,15.52
2023-05-22T06:58:10.948Z,16.01
2023-05-22T07:00:37.587Z,16.44
2023-05-22T07:03:04.365Z,16.86
2023-05-22T07:05:30.901Z,17.44
2023-05-22T07:07:57.382Z,18.28
2023-05-22T07:10:23.995Z,18.82
2023-05-22T07:12:50.455Z,19.37
2023-05-22T07:15:16.924Z,20.21
2023-05-22T07:17:43.474Z,20.75
2023-05-22T07:20:10.039Z,21.22
2023-05-22T07:22:36.588Z,21.55
2023-05-22T07:25:03.016Z,21.92
2023-05-22T07:27:29.542Z,22.45
2023-05-22T07:29:56.171Z,22.76
2023-05-22T07:32:22.788Z,22.69
2023-05-22T07:34:49.276Z,23.34
2023-05-22T07:37:16.335Z,23.24
2023-05-22T07:39:42.791Z,23.88
2023-05-22T07:42:09.259Z,23.63
2023-05-22T07:44:35.904Z,24.11
2023-05-22T07:47:02.405Z,23.74
2023-05-22T07:49:28.916Z,24.61
2023-05-22T07:51:55.522Z,24.62
2023-05-22T07:54:21.981Z,24.75
2023-05-22T07:56:48.394Z,25.22
2023-05-22T07:59:15.660Z,24.88
2023-05-22T08:01:42.282Z,25.05
2023-05-22T08:04:09.040Z,24.82
2023-05-22T08:06:35.896Z,25.30
2023-05-22T08:09:02.563Z,25.60
2023-05-22T08:11:29.148Z,25.88
2023-05-22T08:13:55.710Z,26.06
2023-05-22T08:16:22.331Z,26.15
2023-05-22T08:18:49.214Z,26.33
2023-05-22T08:21:15.861Z,26.56
2023-05-22T08:23:42.313Z,25.37
2023-05-22T08:26:08.767Z,26.49
2023-05-22T08:28:35.343Z,27.24
2023-05-22T08:31:01.865Z,26.40
2023-05-22T08:33:28.368Z,26.70
2023-05-22T08:35:54.915Z,26.92
2023-05-22T08:38:21.470Z,27.35
2023-05-22T08:40:48.244Z,26.63
2023-05-22T08:43:14.812Z,26.82
2023-05-22T08:45:41.245Z,27.36
2023-05-22T08:48:07.813Z,27.32
2023-05-22T08:50:34.616Z,28.03
2023-05-22T08:53:01.102Z,26.84
2023-05-22T08:55:27.663Z,26.31
2023-05-22T08:57:55.139Z,26.62
2023-05-22T09:00:21.822Z,26.44
2023-05-22T09:02:48.686Z,27.73
2023-05-22T09:05:15.302Z,27.96
2023-05-22T09:07:41.716Z,28.17
2023-05-22T09:10:08.344Z,28.09
2023-05-22T09:12:34.887Z,27.97
2023-05-22T09:15:08.023Z,28.23
2023-05-22T09:17:34.590Z,27.58
2023-05-22T09:20:01.226Z,28.09
2023-05-22T09:22:34.858Z,28.87
2023-05-22T09:25:01.381Z,29.40
2023-05-22T09:27:28.112Z,29.24
2023-05-22T09:29:56.017Z,29.05
2023-05-22T09:32:22.584Z,29.33
2023-05-22T09:34:49.362Z,29.14
2023-05-22T09:37:16.088Z,29.58
2023-05-22T09:39:46.467Z,29.56
2023-05-22T09:42:14.818Z,28.14
2023-05-22T09:44:41.487Z,29.01
2023-05-22T09:47:08.166Z,28.52
2023-05-22T09:49:36.086Z,28.22
2023-05-22T09:52:02.596Z,29.14
2023-05-22T09:54:29.117Z,28.31
2023-05-22T09:56:55.614Z,28.61
2023-05-22T09:59:23.811Z,28.67
2023-05-22T10:01:50.435Z,29.31
2023-05-22T10:04:16.970Z,29.62
2023-05-22T10:06:43.467Z,28.54
2023-05-22T10:09:10.558Z,28.19
2023-05-22T10:11:37.042Z,29.52
2023-05-22T10:14:03.489Z,30.06
2023-05-22T10:16:30.106Z,30.10
2023-05-22T10:18:56.852Z,29.37
2023-05-22T10:21:23.392Z,29.76
2023-05-22T10:23:50.152Z,29.74
2023-05-22T10:26:16.686Z,28.91
2023-05-22T10:28:45.341Z,27.80
2023-05-22T10:31:14.911Z,27.86
2023-05-22T10:33:41.926Z,29.07
2023-05-22T10:36:08.842Z,29.67
2023-05-22T10:38:38.496Z,27.85
2023-05-22T10:41:04.958Z,27.07
2023-05-22T10:43:31.376Z,28.09
2023-05-22T10:46:04.416Z,28.03
2023-05-22T10:48:39.982Z,28.32
2023-05-22T10:51:06.944Z,28.79
2023-05-22T10:53:33.470Z,27.82
2023-05-22T10:56:00.144Z,27.02
2023-05-22T10:58:30.326Z,27.60
2023-05-22T11:01:15.860Z,27.15
2023-05-22T11:03:55.370Z,25.82
2023-05-22T11:06:31.205Z,26.48
2023-05-22T11:08:57.715Z,26.60
2023-05-22T11:11:27.231Z,26.75
2023-05-22T11:13:54.122Z,26.45
2023-05-22T11:16:20.590Z,27.23
2023-05-22T11:18:47.350Z,27.25
2023-05-22T11:21:13.920Z,27.82
2023-05-22T11:23:40.457Z,27.38
2023-05-22T11:26:19.696Z,27.16
2023-05-22T11:28:49.481Z,27.62
2023-05-22T11:31:16.223Z,27.54
2023-05-22T11:33:42.885Z,26.27
2023-05-22T11:36:09.413Z,26.40
2023-05-22T11:38:35.919Z,26.65
2023-05-22T11:41:02.730Z,27.07
2023-05-22T11:43:29.646Z,26.26
2023-05-22T11:46:00.307Z,26.70
2023-05-22T11:48:26.909Z,26.90
2023-05-22T11:50:53.381Z,26.49
2023-05-22T11:53:19.794Z,26.03
2023-05-22T11:55:47.971Z,26.02
2023-05-22T11:58:14.455Z,26.23
2023-05-22T12:00:42.771Z,26.10
2023-05-22T12:03:09.420Z,26.43
2023-05-22T12:05:36.149Z,26.76
2023-05-22T12:08:02.666Z,26.23
2023-05-22T12:10:29.132Z,26.36
2023-05-22T12:12:55.635Z,26.25
2023-05-22T12:15:22.213Z,26.00
2023-05-22T12:17:48.825Z,25.91
2023-05-22T12:20:15.547Z,26.47
2023-05-22T12:22:42.562Z,26.05
2023-05-22T12:25:15.595Z,25.88
2023-05-22T12:27:43.104Z,25.78
2023-05-22T12:30:10.568Z,25.60
2023-05-22T12:32:37.196Z,26.13
2023-05-22T12:35:03.814Z,26.30
2023-05-22T12:37:30.290Z,26.25
2023-05-22T12:40:00.653Z,26.08
2023-05-22T12:42:27.358Z,26.23
2023-05-22T12:44:54.039Z,25.73
2023-05-22T12:47:20.813Z,25.73
2023-05-22T12:49:47.322Z,25.50
2023-05-22T12:52:13.749Z,25.97
2023-05-22T12:54:40.509Z,25.97
2023-05-22T12:57:06.989Z,25.95
2023-05-22T12:59:33.507Z,25.73
2023-05-22T13:02:00.369Z,25.71
2023-05-22T13:04:26.968Z,25.93
2023-05-22T13:06:53.512Z,25.60
2023-05-22T13:09:20.007Z,25.63
2023-05-22T13:11:46.932Z,26.05
2023-05-22T13:14:13.664Z,25.78
2023-05-22T13:16:40.402Z,25.61
2023-05-22T13:19:06.988Z,25.69
2023-05-22T13:21:33.526Z,25.50
2023-05-22T13:24:00.126Z,25.62
2023-05-22T13:26:26.622Z,25.83
2023-05-22T13:28:53.313Z,26.01
2023-05-22T13:31:19.923Z,25.27
2023-05-22T13:33:46.427Z,25.64
2023-05-22T13:36:13.035Z,25.91
2023-05-22T13:38:39.555Z,25.99
2023-05-22T13:41:05.986Z,25.74
2023-05-22T13:43:32.783Z,25.43
2023-05-22T13:45:59.266Z,25.53
2023-05-22T13:48:25.785Z,25.48
2023-05-22T13:50:52.217Z,25.58
2023-05-22T13:53:18.699Z,25.29
2023-05-22T13:55:45.168Z,24.96
2023-05-22T13:58:11.687Z,25.13
2023-05-22T14:00:38.264Z,25.52
2023-05-22T14:03:04.993Z,25.55
2023-05-22T14:05:31.744Z,25.71
2023-05-22T14:07:58.242Z,25.70
2023-05-22T14:10:24.700Z,25.67
2023-05-22T14:12:51.119Z,25.28
2023-05-22T14:15:17.946Z,25.28
2023-05-22T14:17:44.750Z,25.53
2023-05-22T14:20:11.343Z,25.45
2023-05-22T14:22:55.267Z,25.31
2023-05-22T14:25:22.113Z,25.55
2023-05-22T14:27:48.600Z,25.31
2023-05-22T14:30:15.025Z,25.33
2023-05-22T14:32:41.668Z,25.60
2023-05-22T14:35:08.426Z,25.64
2023-05-22T14:37:34.839Z,25.55
2023-05-22T14:40:01.421Z,25.74
2023-05-22T14:42:28.010Z,25.62
2023-05-22T14:44:54.512Z,25.66
2023-05-22T14:47:21.031Z,25.59
2023-05-22T14:49:47.541Z,25.55
2023-05-22T14:52:14.196Z,25.36
2023-05-22T14:54:40.662Z,25.40
2023-05-22T14:57:07.160Z,25.39
2023-05-22T14:59:33.599Z,25.51
2023-05-22T15:02:00.038Z,25.27
2023-05-22T15:04:26.909Z,25.20
2023-05-22T15:06:53.499Z,25.41
2023-05-22T15:09:19.972Z,25.30
2023-05-22T15:11:46.475Z,25.55
2023-05-22T15:14:12.909Z,25.29
2023-05-22T15:16:39.330Z,25.43
2023-05-22T15:19:06.096Z,25.37
2023-05-22T15:21:32.650Z,25.50
2023-05-22T15:23:59.178Z,25.25
2023-05-22T15:26:25.797Z,25.21
2023-05-22T15:28:52.290Z,25.09
2023-05-22T15:31:18.829Z,24.76
2023-05-22T15:33:45.392Z,24.97
2023-05-22T15:36:11.855Z,25.28
2023-05-22T15:38:38.329Z,25.30
2023-05-22T15:41:04.815Z,25.21
2023-05-22T15:43:31.226Z,25.26
2023-05-22T15:45:57.799Z,25.06
2023-05-22T15:48:24.454Z,25.00
2023-05-22T15:50:50.996Z,24.86
2023-05-22T15:53:17.486Z,24.90
2023-05-22T15:55:44.111Z,24.91
2023-05-22T15:58:10.571Z,24.91
2023-05-22T16:00:37.276Z,24.69
2023-05-22T16:03:04.320Z,24.76
2023-05-22T16:05:30.863Z,24.63
2023-05-22T16:07:57.284Z,24.70
2023-05-22T16:10:23.972Z,24.76
2023-05-22T16:12:50.447Z,24.69
2023-05-22T16:15:16.900Z,24.65
2023-05-22T16:17:43.599Z,24.33
2023-05-22T16:20:10.133Z,24.29
2023-05-22T16:22:48.288Z,24.40
2023-05-22T16:25:16.098Z,24.40
2023-05-22T16:27:42.651Z,24.49
2023-05-22T16:30:09.232Z,24.25
2023-05-22T16:32:35.849Z,24.26
2023-05-22T16:35:02.347Z,24.33
2023-05-22T16:37:28.818Z,24.36
2023-05-22T16:39:55.325Z,24.09
2023-05-22T16:42:21.760Z,24.01
2023-05-22T16:44:48.209Z,23.98
2023-05-22T16:47:14.812Z,23.99
2023-05-22T16:49:41.272Z,23.98
2023-05-22T16:52:07.720Z,24.11
2023-05-22T16:54:34.475Z,24.03
2023-05-22T16:57:01.008Z,23.92
2023-05-22T16:59:27.497Z,23.77
2023-05-22T17:01:54.089Z,23.82
2023-05-22T17:04:20.587Z,23.71
2023-05-22T17:06:47.677Z,23.66
2023-05-22T17:09:14.308Z,23.59
2023-05-22T17:11:40.754Z,23.54
2023-05-22T17:14:07.149Z,23.45
2023-05-22T17:16:33.776Z,23.14
2023-05-22T17:19:00.360Z,23.05
2023-05-22T17:21:26.784Z,22.94
2023-05-22T17:23:53.310Z,22.77
2023-05-22T17:26:19.755Z,22.81
2023-05-22T17:28:46.200Z,22.64
2023-05-22T17:31:12.795Z,22.41
2023-05-22T17:33:39.314Z,22.16
2023-05-22T17:36:05.872Z,21.81
2023-05-22T17:38:32.375Z,21.70
2023-05-22T17:40:58.830Z,21.51
2023-05-22T17:43:25.272Z,21.46
2023-05-22T17:45:51.798Z,21.21
2023-05-22T17:48:18.389Z,21.39
2023-05-22T17:50:44.808Z,21.53
2023-05-22T17:53:11.334Z,21.64
2023-05-22T17:55:37.838Z,21.63
2023-05-22T17:58:04.511Z,21.56
2023-05-22T18:00:31.013Z,21.02
2023-05-22T18:02:57.602Z,20.99
2023-05-22T18:05:24.149Z,20.91
2023-05-22T18:07:50.722Z,20.77
2023-05-22T18:10:17.150Z,20.67
2023-05-22T18:12:43.690Z,20.47
2023-05-22T18:15:12.287Z,20.44
2023-05-22T18:17:38.929Z,20.40
2023-05-22T18:20:05.772Z,20.13
2023-05-22T18:22:32.511Z,20.03
2023-05-22T18:24:58.970Z,19.98
2023-05-22T18:27:25.509Z,19.83
2023-05-22T18:29:51.966Z,19.73
2023-05-22T18:32:18.451Z,19.56
2023-05-22T18:34:44.885Z,19.04
2023-05-22T18:37:11.385Z,19.07
2023-05-22T18:39:37.811Z,19.13
2023-05-22T18:42:04.594Z,19.10
2023-05-22T18:44:31.167Z,18.64
2023-05-22T18:46:57.618Z,18.70
2023-05-22T18:49:24.090Z,18.52
2023-05-22T18:51:50.570Z,18.43
2023-05-22T18:54:17.109Z,18.32
2023-05-22T18:56:43.549Z,18.17
2023-05-22T18:59:10.032Z,18.10
2023-05-22T19:01:36.554Z,18.02
2023-05-22T19:04:03.111Z,17.66
2023-05-22T19:06:29.600Z,17.54
2023-05-22T19:08:56.057Z,17.35
2023-05-22T19:11:22.467Z,17.20
2023-05-22T19:13:48.967Z,16.97
2023-05-22T19:16:15.500Z,17.02
2023-05-22T19:18:41.971Z,17.07
2023-05-22T19:21:08.454Z,17.03
2023-05-22T19:23:34.883Z,16.90
2023-05-22T19:26:01.396Z,16.53
2023-05-22T19:28:27.973Z,16.58
2023-05-22T19:30:54.458Z,16.50
2023-05-22T19:33:20.946Z,16.43
2023-05-22T19:35:47.579Z,16.40
2023-05-22T19:38:14.011Z,16.21
2023-05-22T19:40:40.696Z,16.14
2023-05-22T19:43:07.505Z,16.13
2023-05-22T19:45:34.019Z,16.14
2023-05-22T19:48:00.630Z,16.10
2023-05-22T19:50:27.433Z,15.96
2023-05-22T19:52:53.882Z,15.91
2023-05-22T19:55:20.368Z,15.91
2023-05-22T19:57:46.909Z,15.73
2023-05-22T20:00:13.551Z,15.74
2023-05-22T20:02:40.089Z,15.63
2023-05-22T20:05:07.045Z,15.71
2023-05-22T20:07:33.531Z,15.52
2023-05-22T20:09:59.959Z,15.42
2023-05-22T20:12:26.553Z,15.43
2023-05-22T20:14:53.012Z,15.47
2023-05-22T20:17:19.429Z,15.51
2023-05-22T20:19:45.960Z,15.31
2023-05-22T20:22:12.496Z,15.19
2023-05-22T20:24:39.009Z,15.05
2023-05-22T20:27:05.554Z,15.09
2023-05-22T20:29:32.015Z,15.04
2023-05-22T20:31:58.528Z,14.99
2023-05-22T20:34:25.095Z,14.99
2023-05-22T20:36:51.491Z,14.93
2023-05-22T20:39:18.030Z,14.88
2023-05-22T20:41:44.583Z,14.82
2023-05-22T20:44:11.030Z,14.87
2023-05-22T20:46:37.573Z,14.82
2023-05-22T20:49:04.269Z,14.87
2023-05-22T20:51:30.732Z,14.80
2023-05-22T20:53:57.159Z,14.73
2023-05-22T20:56:23.772Z,14.35
2023-05-22T20:58:50.251Z,14.22
2023-05-22T21:01:16.709Z,14.36
2023-05-22T21:03:43.237Z,14.33
2023-05-22T21:06:09.760Z,14.13
2023-05-22T21:08:36.252Z,13.96
2023-05-22T21:11:02.826Z,13.99
2023-05-22T21:13:29.361Z,13.92
2023-05-22T21:15:55.789Z,13.97
2023-05-22T21:18:22.285Z,13.95
2023-05-22T21:20:48.814Z,13.87
2023-05-22T21:23:15.256Z,13.88
2023-05-22T21:25:41.798Z,13.78
2023-05-22T21:28:08.276Z,13.82
2023-05-22T21:30:34.722Z,13.85
2023-05-22T21:33:01.261Z,13.87
2023-05-22T21:35:27.809Z,13.83
2023-05-22T21:37:54.316Z,13.77
2023-05-22T21:40:20.771Z,13.65
2023-05-22T21:42:47.665Z,13.57
2023-05-22T21:45:14.216Z,13.51
2023-05-22T21:47:40.701Z,13.45
2023-05-22T21:50:07.412Z,13.42
2023-05-22T21:52:33.976Z,13.37
2023-05-22T21:55:00.403Z,13.24
2023-05-22T21:57:26.980Z,13.11
2023-05-22T21:59:53.503Z,13.37
2023-05-22T22:02:19.954Z,13.37
2023-05-22T22:04:47.761Z,13.03
2023-05-22T22:07:14.304Z,13.22
2023-05-22T22:09:40.804Z,13.17
2023-05-22T22:12:07.987Z,13.07
2023-05-22T22:14:34.598Z,12.93
2023-05-22T22:17:01.107Z,12.84
2023-05-22T22:19:27.591Z,12.94
2023-05-22T22:21:54.216Z,12.93
2023-05-22T22:24:20.760Z,13.02
2023-05-22T22:26:47.329Z,12.98
2023-05-22T22:29:13.788Z,12.86
2023-05-22T22:31:40.333Z,12.78
2023-05-22T22:34:06.786Z,12.82
2023-05-22T22:36:33.423Z,12.80
2023-05-22T22:38:59.868Z,12.66
2023-05-22T22:41:26.456Z,12.70
2023-05-22T22:43:54.548Z,12.55
2023-05-22T22:46:21.347Z,12.19
2023-05-22T22:48:47.841Z,12.31
2023-05-22T22:51:14.370Z,12.45
2023-05-22T22:53:40.862Z,12.50
2023-05-22T22:56:07.475Z,12.39
2023-05-22T22:58:33.895Z,12.27
2023-05-22T23:01:00.397Z,12.36
2023-05-22T23:03:26.926Z,12.35
2023-05-22T23:05:53.398Z,12.35
2023-05-22T23:08:19.803Z,12.36
2023-05-22T23:10:46.248Z,12.23
2023-05-22T23:13:12.762Z,12.30
2023-05-22T23:15:39.701Z,12.07
2023-05-22T23:18:06.638Z,12.09
2023-05-22T23:20:33.102Z,12.26
2023-05-22T23:22:59.582Z,12.29
2023-05-22T23:25:26.131Z,12.10
2023-05-22T23:27:52.635Z,12.18
2023-05-22T23:30:19.201Z,12.04
2023-05-22T23:32:45.865Z,11.98
2023-05-22T23:35:12.493Z,11.95
2023-05-22T23:37:38.942Z,12.07
2023-05-22T23:40:05.666Z,12.13
2023-05-22T23:42:32.428Z,11.99
2023-05-22T23:44:58.886Z,11.84
2023-05-22T23:47:25.476Z,11.98
2023-05-22T23:49:52.177Z,12.06
2023-05-22T23:52:18.735Z,12.02
2023-05-22T23:54:45.242Z,11.88
2023-05-22T23:57:11.707Z,11.91
2023-05-22T23:59:38.183Z,11.95
